Airfield :
LOGIN :

Register | Disclaimer

   EN    FR    IT 

 










Legend :    VFR   Marginal VFR   IFR   Intensive IFR   Very Intensive IFR
Visi :
Ceiling :
>= 8 km
>= 3000ft
5 to 8 km
1000 to 3000 ft
1500m to 5 km
500 to 1000 ft
800 to 1500m
200 to 500 ft
< 800m
< 200 ft
Symbols :   Thunderstorms  Fog  Heavy snow  Heavy precipitations  Wind > 20 kt
SIGMETs :     Misc.  Thunderstorms  Icing  Turbulence  Mountain Waves  Volcanic Ashes






- Airport Elevation : 26 ft
- IATA code : BIA


LFKB - Bastia

CURRENT METAR :
  • 152000Z AUTO 23004KT 9999 BKN082 BKN120 BKN180 08/07 Q1003 TEMPO 27015G30KT SHRA SCT035CB BKN060

EXPIRED METARs :
  • 151930Z AUTO VRB02KT 9999 BKN092/// BKN180/// ///TCU 09/07 Q1003 TEMPO 27015G30KT SHRA SCT035CB BKN060
  • 151900Z AUTO 22003KT 9999 FEW100 BKN180 BKN190 09/07 Q1003 TEMPO 27015G30KT SHRA SCT035CB BKN060
  • 151830Z AUTO 22004KT 9999 FEW064 BKN200 09/07 Q1002 TEMPO 27015G30KT SHRA SCT035CB BKN060
  • 151800Z AUTO 23003KT 9999 BKN070 10/07 Q1002 TEMPO 27015G30KT SHRA SCT035CB BKN060
  • 151730Z AUTO VRB02KT 9999 FEW078 SCT160 10/07 Q1002 TEMPO 27015G30KT SHRA SCT035CB BKN060

TAF TAF LFKB
Valid from the 15 at 15:00 until the 16 at 15:00 UTC


151400Z 1515/1615 20006KT 9999 SCT030 FEW040TCU SCT060 OVC080 TX15/1612Z TN08/1605Z
TEMPO 1519/1602 27015G30KT SHRA SCT035CB BKN060
BECMG 1602/1604 NSC
BECMG 1612/1614 02015G25KT
ATIS : +33 4 95 59 19 40



MET'MAP, your aeronautical weather chart ! - Copyright ORBIFLY December 2007 - Disclaimer

ORBIFLY MET'MAP TEAM :

Programming & Development : Alexandra Zaïnal
Concept & Development : Baudouin d'Aumeries
Co-Development & Prog : Marc-Olivier Méhu
Technical & hardware support : Manuel Goepfert

Contact : metmap@orbifly.com




SOURCES & CREDITS :

   NOAA